DHK52Y LKPR-EGKK
Flight info
| Callsign | DHK52Y |
|---|---|
| Flight time | 1h 27m |
| Altitude | 40000 |
| Route | BALTU DCT DONAD DCT RAPET Z93 KODUK DCT MASEK DCT ARPEG DCT BREDA DCT GALSO Q63 ARREK Y4 TEBRA |
| Aircraft | A333/H-SDE3GHIJ2J3J5M1RVWXY/LB2D1 |
Departure
| Time | 2026-05-06 19:13 |
|---|---|
| Airport | Václav Havel Airport Prague (LKPR) |
Arrival
| Time | 2026-05-06 20:40 |
|---|---|
| Airport | London Gatwick Airport (EGKK) |
| Time | Latitude | Longitude | Altitude | Speed | Heading |
|---|---|---|---|---|---|
| 2026-05-06 18:49 | 50.11349 | 14.27760 | 1177 ft | 0 kts | 153° |
| 2026-05-06 18:58 | 50.11350 | 14.27759 | 1176 ft | 4 kts | 153° |
| 2026-05-06 18:58 | 50.11370 | 14.27744 | 1170 ft | 6 kts | 156° |
| 2026-05-06 18:58 | 50.11398 | 14.27727 | 1169 ft | 3 kts | 165° |
| 2026-05-06 18:59 | 50.11412 | 14.27724 | 1170 ft | 2 kts | 192° |
| 2026-05-06 18:59 | 50.11422 | 14.27731 | 1171 ft | 2 kts | 230° |
| 2026-05-06 18:59 | 50.11428 | 14.27745 | 1169 ft | 2 kts | 243° |
| 2026-05-06 18:59 | 50.11432 | 14.27759 | 1170 ft | 0 kts | 246° |
| 2026-05-06 19:01 | 50.11418 | 14.27707 | 1171 ft | 8 kts | 246° |
| 2026-05-06 19:01 | 50.11384 | 14.27594 | 1169 ft | 15 kts | 245° |
| 2026-05-06 19:01 | 50.11352 | 14.27431 | 1169 ft | 12 kts | 292° |
| 2026-05-06 19:01 | 50.11396 | 14.27334 | 1169 ft | 9 kts | 276° |
| 2026-05-06 19:02 | 50.11371 | 14.27216 | 1171 ft | 13 kts | 246° |
| 2026-05-06 19:02 | 50.11322 | 14.27058 | 1170 ft | 19 kts | 244° |
| 2026-05-06 19:02 | 50.11260 | 14.26853 | 1178 ft | 22 kts | 245° |
| 2026-05-06 19:02 | 50.11188 | 14.26611 | 1173 ft | 26 kts | 245° |
| 2026-05-06 19:03 | 50.11109 | 14.26341 | 1168 ft | 29 kts | 245° |
| 2026-05-06 19:03 | 50.11024 | 14.26059 | 1169 ft | 29 kts | 244° |
| 2026-05-06 19:03 | 50.10965 | 14.25914 | 1173 ft | 13 kts | 221° |
| 2026-05-06 19:03 | 50.10889 | 14.25830 | 1171 ft | 14 kts | 214° |
| 2026-05-06 19:04 | 50.10807 | 14.25742 | 1172 ft | 14 kts | 214° |
| 2026-05-06 19:04 | 50.10728 | 14.25659 | 1180 ft | 13 kts | 214° |
| 2026-05-06 19:04 | 50.10678 | 14.25557 | 1177 ft | 12 kts | 268° |
| 2026-05-06 19:04 | 50.10712 | 14.25437 | 1173 ft | 13 kts | 299° |
| 2026-05-06 19:05 | 50.10759 | 14.25305 | 1174 ft | 15 kts | 299° |
| 2026-05-06 19:05 | 50.10779 | 14.25250 | 1172 ft | 0 kts | 298° |
| 2026-05-06 19:06 | 50.10782 | 14.25240 | 1172 ft | 3 kts | 298° |
| 2026-05-06 19:06 | 50.10798 | 14.25190 | 1172 ft | 7 kts | 293° |
| 2026-05-06 19:07 | 50.10811 | 14.25115 | 1177 ft | 0 kts | 279° |
| 2026-05-06 19:09 | 50.10818 | 14.25043 | 1179 ft | 14 kts | 277° |
| 2026-05-06 19:09 | 50.10821 | 14.24857 | 1174 ft | 19 kts | 266° |
| 2026-05-06 19:09 | 50.10804 | 14.24685 | 1175 ft | 10 kts | 250° |
| 2026-05-06 19:09 | 50.10762 | 14.24639 | 1176 ft | 4 kts | 173° |
| 2026-05-06 19:10 | 50.10740 | 14.24666 | 1175 ft | 0 kts | 127° |
| 2026-05-06 19:12 | 50.10739 | 14.24669 | 1179 ft | 3 kts | 127° |
| 2026-05-06 19:12 | 50.10671 | 14.24810 | 1174 ft | 38 kts | 127° |
| 2026-05-06 19:12 | 50.10379 | 14.25414 | 1178 ft | 99 kts | 127° |
| 2026-05-06 19:13 | 50.09851 | 14.26502 | 1207 ft | 151 kts | 127° |
| 2026-05-06 19:13 | 50.09119 | 14.27959 | 1446 ft | 179 kts | 126° |
| 2026-05-06 19:13 | 50.08375 | 14.29459 | 2376 ft | 171 kts | 125° |
| 2026-05-06 19:13 | 50.07633 | 14.31006 | 2939 ft | 190 kts | 126° |
| 2026-05-06 19:14 | 50.06777 | 14.32805 | 3164 ft | 224 kts | 126° |
| 2026-05-06 19:14 | 50.05788 | 14.34870 | 3494 ft | 249 kts | 127° |
| 2026-05-06 19:14 | 50.04743 | 14.37034 | 4246 ft | 246 kts | 128° |
| 2026-05-06 19:14 | 50.03737 | 14.39114 | 4785 ft | 238 kts | 129° |
| 2026-05-06 19:15 | 50.02743 | 14.41163 | 4971 ft | 238 kts | 129° |
| 2026-05-06 19:15 | 50.01746 | 14.43213 | 4988 ft | 238 kts | 129° |
| 2026-05-06 19:15 | 50.00798 | 14.45335 | 4988 ft | 240 kts | 120° |
| 2026-05-06 19:15 | 50.00270 | 14.47756 | 4994 ft | 242 kts | 98° |
| 2026-05-06 19:16 | 50.00419 | 14.50385 | 4990 ft | 244 kts | 72° |
| 2026-05-06 19:16 | 50.00909 | 14.51957 | 4988 ft | 245 kts | 55° |
| 2026-05-06 19:16 | 50.02532 | 14.54375 | 4992 ft | 246 kts | 37° |
| 2026-05-06 19:16 | 50.03917 | 14.55951 | 4998 ft | 247 kts | 36° |
| 2026-05-06 19:17 | 50.05311 | 14.57511 | 4998 ft | 247 kts | 36° |
| 2026-05-06 19:17 | 50.06702 | 14.59082 | 4991 ft | 247 kts | 36° |
| 2026-05-06 19:17 | 50.07639 | 14.60149 | 4990 ft | 247 kts | 36° |
| 2026-05-06 19:17 | 50.09021 | 14.61733 | 4992 ft | 247 kts | 36° |
| 2026-05-06 19:18 | 50.10474 | 14.63360 | 5047 ft | 268 kts | 32° |
| 2026-05-06 19:18 | 50.12220 | 14.64537 | 5584 ft | 279 kts | 11° |
| 2026-05-06 19:18 | 50.14161 | 14.64583 | 6312 ft | 282 kts | 345° |
| 2026-05-06 19:18 | 50.16017 | 14.63583 | 7075 ft | 283 kts | 333° |
| 2026-05-06 19:19 | 50.17817 | 14.62295 | 7910 ft | 285 kts | 331° |
| 2026-05-06 19:19 | 50.19614 | 14.60969 | 8509 ft | 287 kts | 331° |
| 2026-05-06 19:19 | 50.21430 | 14.59637 | 8745 ft | 289 kts | 331° |
| 2026-05-06 19:19 | 50.23255 | 14.58310 | 8764 ft | 290 kts | 331° |
| 2026-05-06 19:20 | 50.25095 | 14.56980 | 8766 ft | 291 kts | 331° |
| 2026-05-06 19:20 | 50.26934 | 14.55654 | 8750 ft | 291 kts | 331° |
| 2026-05-06 19:20 | 50.28770 | 14.54331 | 8769 ft | 291 kts | 331° |
| 2026-05-06 19:20 | 50.30558 | 14.52863 | 8752 ft | 288 kts | 321° |
| 2026-05-06 19:21 | 50.31985 | 14.50748 | 8767 ft | 280 kts | 301° |
| 2026-05-06 19:21 | 50.32824 | 14.48053 | 8767 ft | 274 kts | 284° |
| 2026-05-06 19:21 | 50.33574 | 14.45309 | 8770 ft | 279 kts | 300° |
| 2026-05-06 19:21 | 50.34882 | 14.43042 | 8760 ft | 283 kts | 313° |
| 2026-05-06 19:22 | 50.36346 | 14.40980 | 8781 ft | 283 kts | 315° |
| 2026-05-06 19:22 | 50.37828 | 14.38946 | 9109 ft | 284 kts | 315° |
| 2026-05-06 19:22 | 50.39329 | 14.36896 | 9835 ft | 288 kts | 315° |
| 2026-05-06 19:22 | 50.40876 | 14.34787 | 10295 ft | 304 kts | 315° |
| 2026-05-06 19:23 | 50.42521 | 14.32526 | 10566 ft | 325 kts | 315° |
| 2026-05-06 19:23 | 50.44087 | 14.29917 | 10821 ft | 341 kts | 304° |
| 2026-05-06 19:23 | 50.45413 | 14.26740 | 11159 ft | 354 kts | 294° |
| 2026-05-06 19:23 | 50.46176 | 14.23035 | 11553 ft | 362 kts | 275° |
| 2026-05-06 19:24 | 50.46217 | 14.19086 | 12034 ft | 363 kts | 264° |
| 2026-05-06 19:24 | 50.45894 | 14.15159 | 12550 ft | 363 kts | 258° |
| 2026-05-06 19:24 | 50.45374 | 14.11270 | 13075 ft | 365 kts | 255° |
| 2026-05-06 19:24 | 50.44773 | 14.07389 | 13596 ft | 368 kts | 254° |
| 2026-05-06 19:25 | 50.44149 | 14.03463 | 14150 ft | 373 kts | 254° |
| 2026-05-06 19:25 | 50.43530 | 13.99492 | 14798 ft | 376 kts | 255° |
| 2026-05-06 19:25 | 50.42925 | 13.95469 | 15366 ft | 381 kts | 255° |
| 2026-05-06 19:25 | 50.42333 | 13.91404 | 15960 ft | 384 kts | 255° |
| 2026-05-06 19:26 | 50.41748 | 13.87294 | 16590 ft | 388 kts | 256° |
| 2026-05-06 19:26 | 50.41165 | 13.83152 | 17179 ft | 391 kts | 256° |
| 2026-05-06 19:26 | 50.40577 | 13.78967 | 17762 ft | 395 kts | 256° |
| 2026-05-06 19:26 | 50.39982 | 13.74745 | 18297 ft | 398 kts | 256° |
| 2026-05-06 19:27 | 50.39380 | 13.70493 | 18797 ft | 401 kts | 255° |
| 2026-05-06 19:27 | 50.38779 | 13.66261 | 19297 ft | 404 kts | 255° |
| 2026-05-06 19:27 | 50.38157 | 13.61902 | 19816 ft | 406 kts | 255° |
| 2026-05-06 19:27 | 50.37539 | 13.57581 | 20313 ft | 408 kts | 255° |
| 2026-05-06 19:28 | 50.36921 | 13.53283 | 20783 ft | 411 kts | 255° |
| 2026-05-06 19:28 | 50.36282 | 13.48854 | 21265 ft | 413 kts | 255° |
| 2026-05-06 19:28 | 50.35654 | 13.44509 | 21765 ft | 416 kts | 255° |
| 2026-05-06 19:28 | 50.35012 | 13.40081 | 22224 ft | 418 kts | 255° |
| 2026-05-06 19:29 | 50.34364 | 13.35627 | 22694 ft | 421 kts | 255° |
| 2026-05-06 19:29 | 50.33710 | 13.31148 | 23138 ft | 423 kts | 255° |
| 2026-05-06 19:29 | 50.33051 | 13.26642 | 23571 ft | 426 kts | 255° |
| 2026-05-06 19:29 | 50.32387 | 13.22113 | 23989 ft | 428 kts | 255° |
| 2026-05-06 19:30 | 50.31718 | 13.17575 | 24411 ft | 429 kts | 254° |
| 2026-05-06 19:30 | 50.31044 | 13.13021 | 24833 ft | 430 kts | 254° |
| 2026-05-06 19:30 | 50.30368 | 13.08453 | 25272 ft | 432 kts | 254° |
| 2026-05-06 19:30 | 50.29689 | 13.03864 | 25702 ft | 433 kts | 254° |
| 2026-05-06 19:31 | 50.29007 | 12.99269 | 26117 ft | 435 kts | 254° |
| 2026-05-06 19:31 | 50.28319 | 12.94652 | 26528 ft | 437 kts | 254° |
| 2026-05-06 19:31 | 50.26929 | 12.85375 | 27322 ft | 440 kts | 254° |
| 2026-05-06 19:32 | 50.26227 | 12.80714 | 27712 ft | 441 kts | 253° |
| 2026-05-06 19:32 | 50.25521 | 12.76039 | 28086 ft | 443 kts | 253° |
| 2026-05-06 19:32 | 50.24810 | 12.71341 | 28457 ft | 445 kts | 253° |
| 2026-05-06 19:32 | 50.24094 | 12.66631 | 28818 ft | 446 kts | 253° |
| 2026-05-06 19:33 | 50.23374 | 12.61905 | 29152 ft | 448 kts | 253° |
| 2026-05-06 19:33 | 50.22649 | 12.57162 | 29491 ft | 450 kts | 253° |
| 2026-05-06 19:33 | 50.21919 | 12.52403 | 29830 ft | 452 kts | 253° |
| 2026-05-06 19:33 | 50.21185 | 12.47630 | 30134 ft | 453 kts | 253° |
| 2026-05-06 19:34 | 50.20444 | 12.42822 | 30396 ft | 455 kts | 253° |
| 2026-05-06 19:34 | 50.19718 | 12.38042 | 30931 ft | 451 kts | 254° |
| 2026-05-06 19:34 | 50.19237 | 12.33217 | 31469 ft | 450 kts | 261° |
| 2026-05-06 19:34 | 50.19067 | 12.28342 | 31947 ft | 449 kts | 263° |
| 2026-05-06 19:35 | 50.18995 | 12.23484 | 32393 ft | 448 kts | 265° |
| 2026-05-06 19:35 | 50.19159 | 12.18617 | 32828 ft | 451 kts | 271° |
| 2026-05-06 19:35 | 50.19707 | 12.13839 | 33216 ft | 456 kts | 278° |
| 2026-05-06 19:35 | 50.20557 | 12.09065 | 33594 ft | 457 kts | 281° |
| 2026-05-06 19:36 | 50.21524 | 12.04274 | 33906 ft | 457 kts | 282° |
| 2026-05-06 19:36 | 50.22535 | 11.99556 | 34157 ft | 459 kts | 283° |
| 2026-05-06 19:36 | 50.23574 | 11.94820 | 34265 ft | 463 kts | 283° |
| 2026-05-06 19:36 | 50.24609 | 11.90106 | 34406 ft | 466 kts | 283° |
| 2026-05-06 19:37 | 50.25656 | 11.85313 | 34624 ft | 467 kts | 283° |
| 2026-05-06 19:37 | 50.26695 | 11.80514 | 34894 ft | 466 kts | 283° |
| 2026-05-06 19:37 | 50.27724 | 11.75718 | 35158 ft | 465 kts | 283° |
| 2026-05-06 19:37 | 50.28746 | 11.70923 | 35437 ft | 464 kts | 283° |
| 2026-05-06 19:38 | 50.29763 | 11.66127 | 35712 ft | 464 kts | 283° |
| 2026-05-06 19:38 | 50.30775 | 11.61337 | 35985 ft | 463 kts | 283° |
| 2026-05-06 19:38 | 50.31781 | 11.56562 | 36287 ft | 462 kts | 283° |
| 2026-05-06 19:38 | 50.32785 | 11.51787 | 36572 ft | 461 kts | 283° |
| 2026-05-06 19:39 | 50.33784 | 11.47025 | 36853 ft | 460 kts | 283° |
| 2026-05-06 19:39 | 50.34778 | 11.42274 | 37142 ft | 459 kts | 284° |
| 2026-05-06 19:39 | 50.35768 | 11.37527 | 37432 ft | 458 kts | 284° |
| 2026-05-06 19:39 | 50.36753 | 11.32796 | 37729 ft | 456 kts | 284° |
| 2026-05-06 19:40 | 50.37734 | 11.28076 | 38030 ft | 455 kts | 284° |
| 2026-05-06 19:40 | 50.38708 | 11.23377 | 38335 ft | 453 kts | 284° |
| 2026-05-06 19:40 | 50.39677 | 11.18691 | 38602 ft | 451 kts | 284° |
| 2026-05-06 19:40 | 50.40636 | 11.14044 | 38861 ft | 449 kts | 284° |
| 2026-05-06 19:41 | 50.41590 | 11.09407 | 39102 ft | 446 kts | 284° |
| 2026-05-06 19:41 | 50.42538 | 11.04791 | 39353 ft | 444 kts | 284° |
| 2026-05-06 19:41 | 50.43481 | 11.00191 | 39524 ft | 443 kts | 284° |
| 2026-05-06 19:41 | 50.44423 | 10.95575 | 39644 ft | 444 kts | 284° |
| 2026-05-06 19:42 | 50.45364 | 10.90949 | 39753 ft | 445 kts | 283° |
| 2026-05-06 19:42 | 50.46302 | 10.86305 | 39784 ft | 448 kts | 284° |
| 2026-05-06 19:42 | 50.48207 | 10.76896 | 39790 ft | 456 kts | 284° |
| 2026-05-06 19:43 | 50.50139 | 10.67325 | 39796 ft | 464 kts | 284° |
| 2026-05-06 19:43 | 50.52156 | 10.57614 | 39792 ft | 472 kts | 287° |
| 2026-05-06 19:44 | 50.54502 | 10.47956 | 39788 ft | 480 kts | 288° |
| 2026-05-06 19:44 | 50.56931 | 10.38048 | 39789 ft | 483 kts | 288° |
| 2026-05-06 19:45 | 50.59327 | 10.28254 | 39809 ft | 483 kts | 288° |
| 2026-05-06 19:45 | 50.61738 | 10.18357 | 39797 ft | 484 kts | 288° |
| 2026-05-06 19:46 | 50.64145 | 10.08449 | 39802 ft | 484 kts | 288° |
| 2026-05-06 19:46 | 50.66564 | 9.98474 | 39802 ft | 484 kts | 288° |
| 2026-05-06 19:47 | 50.68964 | 9.88558 | 39807 ft | 484 kts | 288° |
| 2026-05-06 19:47 | 50.71339 | 9.78700 | 39807 ft | 483 kts | 288° |
| 2026-05-06 19:48 | 50.73710 | 9.68788 | 39813 ft | 483 kts | 288° |
| 2026-05-06 19:48 | 50.76081 | 9.58864 | 39813 ft | 483 kts | 288° |
| 2026-05-06 19:49 | 50.78781 | 9.49122 | 39817 ft | 485 kts | 292° |
| 2026-05-06 19:49 | 50.81690 | 9.39531 | 39840 ft | 483 kts | 293° |
| 2026-05-06 19:50 | 50.84576 | 9.29971 | 39834 ft | 481 kts | 292° |
| 2026-05-06 19:50 | 50.87449 | 9.20422 | 39821 ft | 481 kts | 292° |
| 2026-05-06 19:51 | 50.90318 | 9.10864 | 39834 ft | 481 kts | 292° |
| 2026-05-06 19:51 | 50.93187 | 9.01284 | 39827 ft | 481 kts | 292° |
| 2026-05-06 19:52 | 50.96052 | 8.91709 | 39837 ft | 481 kts | 292° |
| 2026-05-06 19:52 | 50.98916 | 8.82129 | 39842 ft | 481 kts | 292° |
| 2026-05-06 19:53 | 51.01772 | 8.72537 | 39828 ft | 480 kts | 291° |
| 2026-05-06 19:53 | 51.03885 | 8.62547 | 39837 ft | 476 kts | 283° |
| 2026-05-06 19:54 | 51.05537 | 8.52360 | 39865 ft | 476 kts | 281° |
| 2026-05-06 19:54 | 51.07081 | 8.42126 | 39862 ft | 476 kts | 281° |
| 2026-05-06 19:55 | 51.08602 | 8.31882 | 39858 ft | 476 kts | 281° |
| 2026-05-06 19:55 | 51.10124 | 8.21622 | 39855 ft | 476 kts | 281° |
| 2026-05-06 19:56 | 51.11642 | 8.11376 | 39863 ft | 476 kts | 281° |
| 2026-05-06 19:56 | 51.13155 | 8.01109 | 39869 ft | 476 kts | 281° |
| 2026-05-06 19:57 | 51.14643 | 7.90891 | 39875 ft | 477 kts | 281° |
| 2026-05-06 19:57 | 51.16140 | 7.80590 | 39870 ft | 477 kts | 281° |
| 2026-05-06 19:58 | 51.18770 | 7.62353 | 39882 ft | 477 kts | 281° |
| 2026-05-06 19:58 | 51.21707 | 7.41685 | 39895 ft | 477 kts | 281° |
| 2026-05-06 19:59 | 51.24602 | 7.21024 | 39895 ft | 477 kts | 281° |
| 2026-05-06 19:59 | 51.27459 | 7.00349 | 39908 ft | 478 kts | 281° |
| 2026-05-06 20:00 | 51.30291 | 6.79563 | 39911 ft | 477 kts | 280° |
| 2026-05-06 20:00 | 51.32614 | 6.62294 | 39911 ft | 478 kts | 280° |
| 2026-05-06 20:01 | 51.35371 | 6.41522 | 39911 ft | 478 kts | 280° |
| 2026-05-06 20:01 | 51.38096 | 6.20684 | 39933 ft | 478 kts | 280° |
| 2026-05-06 20:02 | 51.40774 | 5.99900 | 39928 ft | 478 kts | 280° |
| 2026-05-06 20:02 | 51.45472 | 5.62679 | 39932 ft | 477 kts | 280° |
| 2026-05-06 20:03 | 51.50600 | 5.20844 | 39934 ft | 478 kts | 279° |
| 2026-05-06 20:03 | 51.55572 | 4.78975 | 39936 ft | 477 kts | 279° |
| 2026-05-06 20:04 | 51.60399 | 4.36973 | 39941 ft | 477 kts | 279° |
| 2026-05-06 20:04 | 51.63192 | 4.12024 | 39946 ft | 477 kts | 279° |
| 2026-05-06 20:05 | 51.65503 | 3.90976 | 39954 ft | 477 kts | 278° |
| 2026-05-06 20:05 | 51.67776 | 3.69921 | 39953 ft | 476 kts | 278° |
| 2026-05-06 20:06 | 51.68960 | 3.58800 | 39957 ft | 476 kts | 278° |
| 2026-05-06 20:06 | 51.70070 | 3.48283 | 39962 ft | 476 kts | 278° |
| 2026-05-06 20:07 | 51.71162 | 3.37837 | 39960 ft | 475 kts | 278° |
| 2026-05-06 20:07 | 51.71704 | 3.32630 | 39776 ft | 468 kts | 278° |
| 2026-05-06 20:07 | 51.72240 | 3.27445 | 39098 ft | 472 kts | 278° |
| 2026-05-06 20:08 | 51.72766 | 3.22202 | 38102 ft | 473 kts | 276° |
| 2026-05-06 20:08 | 51.72998 | 3.16914 | 36904 ft | 469 kts | 270° |
| 2026-05-06 20:08 | 51.73029 | 3.11664 | 35885 ft | 470 kts | 270° |
| 2026-05-06 20:08 | 51.73056 | 3.06391 | 34949 ft | 470 kts | 270° |
| 2026-05-06 20:09 | 51.73084 | 3.01117 | 34077 ft | 470 kts | 271° |
| 2026-05-06 20:09 | 51.73114 | 2.95852 | 33132 ft | 469 kts | 270° |
| 2026-05-06 20:09 | 51.73146 | 2.90609 | 32201 ft | 468 kts | 270° |
| 2026-05-06 20:09 | 51.72986 | 2.85365 | 31418 ft | 468 kts | 262° |
| 2026-05-06 20:10 | 51.72392 | 2.80222 | 30848 ft | 465 kts | 257° |
| 2026-05-06 20:10 | 51.71597 | 2.75179 | 30307 ft | 464 kts | 255° |
| 2026-05-06 20:10 | 51.70733 | 2.70176 | 29723 ft | 463 kts | 254° |
| 2026-05-06 20:10 | 51.69793 | 2.65207 | 29099 ft | 463 kts | 252° |
| 2026-05-06 20:11 | 51.68798 | 2.60285 | 28531 ft | 458 kts | 252° |
| 2026-05-06 20:11 | 51.67817 | 2.55465 | 28222 ft | 451 kts | 252° |
| 2026-05-06 20:11 | 51.66843 | 2.50662 | 27715 ft | 450 kts | 252° |
| 2026-05-06 20:11 | 51.65874 | 2.45875 | 27137 ft | 448 kts | 252° |
| 2026-05-06 20:12 | 51.64915 | 2.41133 | 26579 ft | 444 kts | 252° |
| 2026-05-06 20:12 | 51.63961 | 2.36421 | 26017 ft | 442 kts | 252° |
| 2026-05-06 20:12 | 51.63012 | 2.31738 | 25458 ft | 439 kts | 252° |
| 2026-05-06 20:12 | 51.62066 | 2.27081 | 24898 ft | 435 kts | 252° |
| 2026-05-06 20:13 | 51.61128 | 2.22470 | 24356 ft | 432 kts | 252° |
| 2026-05-06 20:13 | 51.60195 | 2.17897 | 23785 ft | 429 kts | 252° |
| 2026-05-06 20:13 | 51.59267 | 2.13355 | 23152 ft | 425 kts | 252° |
| 2026-05-06 20:13 | 51.58349 | 2.08875 | 22585 ft | 420 kts | 252° |
| 2026-05-06 20:14 | 51.57436 | 2.04429 | 22026 ft | 417 kts | 252° |
| 2026-05-06 20:14 | 51.56528 | 2.00020 | 21474 ft | 414 kts | 252° |
| 2026-05-06 20:14 | 51.55626 | 1.95646 | 20909 ft | 411 kts | 252° |
| 2026-05-06 20:14 | 51.54729 | 1.91307 | 20376 ft | 408 kts | 252° |
| 2026-05-06 20:15 | 51.53835 | 1.86990 | 19822 ft | 406 kts | 252° |
| 2026-05-06 20:15 | 51.52940 | 1.82694 | 19275 ft | 404 kts | 252° |
| 2026-05-06 20:15 | 51.52053 | 1.78440 | 18758 ft | 401 kts | 252° |
| 2026-05-06 20:15 | 51.51170 | 1.74207 | 18259 ft | 399 kts | 252° |
| 2026-05-06 20:16 | 51.50292 | 1.69996 | 17679 ft | 396 kts | 252° |
| 2026-05-06 20:16 | 51.49420 | 1.65821 | 17123 ft | 393 kts | 252° |
| 2026-05-06 20:16 | 51.48550 | 1.61672 | 16562 ft | 390 kts | 252° |
| 2026-05-06 20:16 | 51.47686 | 1.57556 | 16027 ft | 388 kts | 252° |
| 2026-05-06 20:17 | 51.46828 | 1.53482 | 15487 ft | 385 kts | 252° |
| 2026-05-06 20:17 | 51.45972 | 1.49428 | 14969 ft | 382 kts | 252° |
| 2026-05-06 20:17 | 51.45133 | 1.45459 | 14449 ft | 380 kts | 252° |
| 2026-05-06 20:17 | 51.44253 | 1.41404 | 14096 ft | 382 kts | 249° |
| 2026-05-06 20:18 | 51.43008 | 1.37699 | 14010 ft | 386 kts | 234° |
| 2026-05-06 20:18 | 51.41114 | 1.34654 | 14001 ft | 388 kts | 220° |
| 2026-05-06 20:18 | 51.38967 | 1.32033 | 14001 ft | 389 kts | 218° |
| 2026-05-06 20:18 | 51.36780 | 1.29482 | 14001 ft | 389 kts | 217° |
| 2026-05-06 20:19 | 51.36545 | 1.29210 | 14001 ft | 389 kts | 217° |
| 2026-05-06 20:19 | 51.35558 | 1.28060 | 14004 ft | 389 kts | 217° |
| 2026-05-06 20:19 | 51.33374 | 1.25510 | 14000 ft | 389 kts | 217° |
| 2026-05-06 20:19 | 51.31193 | 1.22953 | 13997 ft | 388 kts | 218° |
| 2026-05-06 20:20 | 51.29016 | 1.20397 | 14003 ft | 388 kts | 218° |
| 2026-05-06 20:20 | 51.26841 | 1.17842 | 14000 ft | 388 kts | 218° |
| 2026-05-06 20:20 | 51.24664 | 1.15284 | 14004 ft | 388 kts | 218° |
| 2026-05-06 20:20 | 51.22486 | 1.12728 | 14005 ft | 388 kts | 218° |
| 2026-05-06 20:21 | 51.20313 | 1.10178 | 14004 ft | 386 kts | 218° |
| 2026-05-06 20:21 | 51.18201 | 1.07707 | 14015 ft | 366 kts | 218° |
| 2026-05-06 20:21 | 51.16172 | 1.05335 | 14017 ft | 361 kts | 218° |
| 2026-05-06 20:21 | 51.14140 | 1.02956 | 14016 ft | 364 kts | 218° |
| 2026-05-06 20:22 | 51.12098 | 1.00569 | 14014 ft | 365 kts | 218° |
| 2026-05-06 20:22 | 51.10053 | 0.98182 | 14012 ft | 365 kts | 218° |
| 2026-05-06 20:22 | 51.08005 | 0.95796 | 14019 ft | 365 kts | 218° |
| 2026-05-06 20:22 | 51.06071 | 0.93201 | 13621 ft | 364 kts | 228° |
| 2026-05-06 20:23 | 51.04451 | 0.90105 | 12927 ft | 363 kts | 236° |
| 2026-05-06 20:23 | 51.03159 | 0.86722 | 12552 ft | 353 kts | 245° |
| 2026-05-06 20:23 | 51.02319 | 0.83145 | 12347 ft | 339 kts | 255° |
| 2026-05-06 20:23 | 51.01733 | 0.79595 | 12170 ft | 324 kts | 257° |
| 2026-05-06 20:24 | 51.01239 | 0.76226 | 11911 ft | 304 kts | 258° |
| 2026-05-06 20:24 | 51.00798 | 0.73010 | 11485 ft | 293 kts | 261° |
| 2026-05-06 20:24 | 51.00598 | 0.69831 | 10915 ft | 287 kts | 269° |
| 2026-05-06 20:24 | 51.00584 | 0.66679 | 10332 ft | 284 kts | 271° |
| 2026-05-06 20:25 | 51.00595 | 0.63556 | 9728 ft | 282 kts | 271° |
| 2026-05-06 20:25 | 51.00609 | 0.60459 | 9064 ft | 280 kts | 271° |
| 2026-05-06 20:25 | 51.00623 | 0.57380 | 8437 ft | 278 kts | 271° |
| 2026-05-06 20:25 | 51.00634 | 0.54331 | 8058 ft | 275 kts | 271° |
| 2026-05-06 20:26 | 51.00645 | 0.51297 | 7973 ft | 275 kts | 271° |
| 2026-05-06 20:26 | 51.00658 | 0.48251 | 7987 ft | 277 kts | 271° |
| 2026-05-06 20:26 | 51.00670 | 0.45197 | 7980 ft | 276 kts | 271° |
| 2026-05-06 20:26 | 51.00686 | 0.42160 | 7972 ft | 275 kts | 271° |
| 2026-05-06 20:27 | 51.00703 | 0.39127 | 7977 ft | 275 kts | 271° |
| 2026-05-06 20:27 | 51.00721 | 0.36094 | 7977 ft | 275 kts | 271° |
| 2026-05-06 20:27 | 51.00736 | 0.33067 | 7986 ft | 274 kts | 271° |
| 2026-05-06 20:27 | 51.00752 | 0.30036 | 7970 ft | 274 kts | 271° |
| 2026-05-06 20:28 | 51.00764 | 0.27050 | 7976 ft | 274 kts | 271° |
| 2026-05-06 20:28 | 51.00774 | 0.23987 | 7975 ft | 274 kts | 271° |
| 2026-05-06 20:28 | 51.00786 | 0.21000 | 7980 ft | 274 kts | 271° |
| 2026-05-06 20:28 | 51.00799 | 0.17968 | 7980 ft | 274 kts | 271° |
| 2026-05-06 20:29 | 51.00810 | 0.14940 | 7988 ft | 274 kts | 271° |
| 2026-05-06 20:29 | 51.00825 | 0.11912 | 7985 ft | 275 kts | 271° |
| 2026-05-06 20:29 | 51.00840 | 0.08877 | 8000 ft | 275 kts | 271° |
| 2026-05-06 20:29 | 51.00852 | 0.05847 | 7990 ft | 274 kts | 271° |
| 2026-05-06 20:30 | 51.00865 | 0.02812 | 7997 ft | 274 kts | 271° |
| 2026-05-06 20:30 | 51.00879 | -0.03151 | 8010 ft | 259 kts | 271° |
| 2026-05-06 20:30 | 51.00874 | -0.05928 | 8030 ft | 245 kts | 271° |
| 2026-05-06 20:31 | 51.00869 | -0.08609 | 8016 ft | 242 kts | 271° |
| 2026-05-06 20:31 | 51.00863 | -0.11280 | 8006 ft | 242 kts | 271° |
| 2026-05-06 20:31 | 51.00857 | -0.13971 | 7667 ft | 246 kts | 271° |
| 2026-05-06 20:31 | 51.00853 | -0.16672 | 7304 ft | 242 kts | 271° |
| 2026-05-06 20:32 | 51.00847 | -0.19331 | 6941 ft | 241 kts | 271° |
| 2026-05-06 20:32 | 51.00841 | -0.22000 | 6579 ft | 243 kts | 271° |
| 2026-05-06 20:32 | 51.00833 | -0.24665 | 6191 ft | 239 kts | 271° |
| 2026-05-06 20:32 | 51.00827 | -0.27278 | 5825 ft | 235 kts | 271° |
| 2026-05-06 20:33 | 51.00816 | -0.29872 | 5562 ft | 235 kts | 271° |
| 2026-05-06 20:33 | 51.00804 | -0.32457 | 5312 ft | 234 kts | 271° |
| 2026-05-06 20:33 | 51.00792 | -0.35033 | 4979 ft | 232 kts | 271° |
| 2026-05-06 20:33 | 51.00780 | -0.37578 | 4492 ft | 230 kts | 271° |
| 2026-05-06 20:34 | 51.00769 | -0.40108 | 3995 ft | 228 kts | 270° |
| 2026-05-06 20:34 | 51.00755 | -0.42621 | 3409 ft | 228 kts | 273° |
| 2026-05-06 20:34 | 51.01155 | -0.44975 | 3025 ft | 216 kts | 305° |
| 2026-05-06 20:34 | 51.02238 | -0.46425 | 2982 ft | 197 kts | 336° |
| 2026-05-06 20:35 | 51.03479 | -0.47101 | 3002 ft | 183 kts | 345° |
| 2026-05-06 20:35 | 51.04690 | -0.47633 | 2994 ft | 179 kts | 346° |
| 2026-05-06 20:35 | 51.05897 | -0.48146 | 2989 ft | 180 kts | 346° |
| 2026-05-06 20:35 | 51.07112 | -0.48615 | 2981 ft | 179 kts | 353° |
| 2026-05-06 20:36 | 51.08306 | -0.48186 | 2989 ft | 179 kts | 29° |
| 2026-05-06 20:36 | 51.09303 | -0.46996 | 2990 ft | 180 kts | 39° |
| 2026-05-06 20:36 | 51.10242 | -0.45677 | 2990 ft | 180 kts | 40° |
| 2026-05-06 20:36 | 51.11084 | -0.44206 | 2988 ft | 182 kts | 57° |
| 2026-05-06 20:37 | 51.11557 | -0.42338 | 2986 ft | 183 kts | 73° |
| 2026-05-06 20:37 | 51.11839 | -0.40367 | 2824 ft | 182 kts | 75° |
| 2026-05-06 20:37 | 51.12109 | -0.38415 | 2565 ft | 180 kts | 75° |
| 2026-05-06 20:37 | 51.12383 | -0.36484 | 2304 ft | 178 kts | 74° |
| 2026-05-06 20:38 | 51.12651 | -0.34569 | 2060 ft | 176 kts | 75° |
| 2026-05-06 20:38 | 51.12911 | -0.32703 | 1816 ft | 168 kts | 74° |
| 2026-05-06 20:38 | 51.13158 | -0.30929 | 1582 ft | 160 kts | 74° |
| 2026-05-06 20:38 | 51.13397 | -0.29221 | 1377 ft | 153 kts | 75° |
| 2026-05-06 20:39 | 51.13608 | -0.27701 | 1176 ft | 141 kts | 75° |
| 2026-05-06 20:39 | 51.13819 | -0.26197 | 970 ft | 133 kts | 75° |
| 2026-05-06 20:39 | 51.14019 | -0.24762 | 789 ft | 133 kts | 76° |
| 2026-05-06 20:39 | 51.14220 | -0.23319 | 602 ft | 134 kts | 78° |
| 2026-05-06 20:40 | 51.14426 | -0.21885 | 376 ft | 132 kts | 77° |
| 2026-05-06 20:40 | 51.14624 | -0.20466 | 238 ft | 129 kts | 79° |
| 2026-05-06 20:40 | 51.14788 | -0.19226 | 219 ft | 91 kts | 77° |
| 2026-05-06 20:40 | 51.14882 | -0.18549 | 211 ft | 42 kts | 77° |
| 2026-05-06 20:41 | 51.14947 | -0.18103 | 220 ft | 40 kts | 73° |
| 2026-05-06 20:41 | 51.15054 | -0.17803 | 222 ft | 14 kts | 45° |
| 2026-05-06 20:41 | 51.15135 | -0.17766 | 213 ft | 8 kts | 357° |
| 2026-05-06 20:41 | 51.15156 | -0.17768 | 214 ft | 0 kts | 355° |
| 2026-05-06 20:42 | 51.15169 | -0.17770 | 219 ft | 3 kts | 355° |
| 2026-05-06 20:42 | 51.15177 | -0.17771 | 217 ft | 0 kts | 355° |
| 2026-05-06 20:43 | 51.15190 | -0.17774 | 211 ft | 6 kts | 353° |
| 2026-05-06 20:43 | 51.15235 | -0.17808 | 220 ft | 9 kts | 309° |
| 2026-05-06 20:43 | 51.15239 | -0.17909 | 215 ft | 12 kts | 257° |
| 2026-05-06 20:43 | 51.15219 | -0.18047 | 214 ft | 14 kts | 257° |
| 2026-05-06 20:44 | 51.15212 | -0.18189 | 214 ft | 10 kts | 296° |
| 2026-05-06 20:44 | 51.15275 | -0.18241 | 210 ft | 11 kts | 346° |
| 2026-05-06 20:44 | 51.15355 | -0.18269 | 214 ft | 12 kts | 348° |
| 2026-05-06 20:44 | 51.15445 | -0.18299 | 217 ft | 14 kts | 347° |
| 2026-05-06 20:45 | 51.15545 | -0.18334 | 210 ft | 15 kts | 347° |
| 2026-05-06 20:45 | 51.15626 | -0.18386 | 220 ft | 9 kts | 306° |
| 2026-05-06 20:45 | 51.15631 | -0.18455 | 208 ft | 10 kts | 258° |
| 2026-05-06 20:45 | 51.15616 | -0.18567 | 216 ft | 11 kts | 258° |
| 2026-05-06 20:46 | 51.15596 | -0.18683 | 217 ft | 9 kts | 235° |
| 2026-05-06 20:46 | 51.15537 | -0.18690 | 208 ft | 2 kts | 167° |
| 2026-05-06 20:46 | 51.15522 | -0.18685 | 216 ft | 2 kts | 167° |
| 2026-05-06 20:46 | 51.15520 | -0.18684 | 208 ft | 0 kts | 167° |